sensor_id;sensor_type;location;lat;lon;timestamp;pressure;altitude;pressure_sealevel;temperature;humidity
72486;BME280;60509;47.308;-122.428;2023-01-04T00:01:20;100046.55;;;0.60;43.07
72486;BME280;60509;47.308;-122.428;2023-01-04T00:03:41;100043.72;;;-1.08;44.76
72486;BME280;60509;47.308;-122.428;2023-01-04T00:06:09;100042.99;;;-1.77;45.35
72486;BME280;60509;47.308;-122.428;2023-01-04T00:08:32;100042.93;;;-1.12;44.17
72486;BME280;60509;47.308;-122.428;2023-01-04T00:11:01;100044.40;;;-1.44;44.79
72486;BME280;60509;47.308;-122.428;2023-01-04T00:13:23;100040.98;;;-0.44;43.59
72486;BME280;60509;47.308;-122.428;2023-01-04T00:15:48;100039.88;;;-0.74;44.17
72486;BME280;60509;47.308;-122.428;2023-01-04T00:18:14;100038.79;;;-0.32;43.83
72486;BME280;60509;47.308;-122.428;2023-01-04T00:20:39;100042.77;;;-1.56;45.52
72486;BME280;60509;47.308;-122.428;2023-01-04T00:23:04;100042.76;;;-0.57;43.96
72486;BME280;60509;47.308;-122.428;2023-01-04T00:25:30;100046.69;;;-1.20;44.32
72486;BME280;60509;47.308;-122.428;2023-01-04T00:27:55;100045.99;;;-1.27;44.51
72486;BME280;60509;47.308;-122.428;2023-01-04T00:30:21;100045.82;;;-1.41;44.91
72486;BME280;60509;47.308;-122.428;2023-01-04T00:32:46;100046.53;;;-2.47;46.17
72486;BME280;60509;47.308;-122.428;2023-01-04T00:35:12;100043.60;;;-2.02;45.31
72486;BME280;60509;47.308;-122.428;2023-01-04T00:37:37;100043.70;;;-1.96;45.27
72486;BME280;60509;47.308;-122.428;2023-01-04T00:40:03;100046.26;;;0.23;43.03
72486;BME280;60509;47.308;-122.428;2023-01-04T00:42:28;100048.76;;;-1.21;44.26
72486;BME280;60509;47.308;-122.428;2023-01-04T00:44:54;100050.53;;;-2.47;45.74
72486;BME280;60509;47.308;-122.428;2023-01-04T00:47:19;100047.40;;;-1.88;45.05
72486;BME280;60509;47.308;-122.428;2023-01-04T00:49:45;100052.54;;;-2.11;45.45
72486;BME280;60509;47.308;-122.428;2023-01-04T00:52:10;100047.92;;;-2.87;46.05
72486;BME280;60509;47.308;-122.428;2023-01-04T00:54:36;100051.81;;;-2.44;45.92
72486;BME280;60509;47.308;-122.428;2023-01-04T00:57:02;100052.43;;;-2.44;45.75
72486;BME280;60509;47.308;-122.428;2023-01-04T00:59:28;100046.03;;;-1.96;45.07
72486;BME280;60509;47.308;-122.428;2023-01-04T01:01:53;100043.10;;;-2.21;45.92
72486;BME280;60509;47.308;-122.428;2023-01-04T01:04:20;100042.71;;;-3.20;47.29
72486;BME280;60509;47.308;-122.428;2023-01-04T01:06:44;100032.73;;;-2.54;46.55
72486;BME280;60509;47.308;-122.428;2023-01-04T01:09:10;100029.83;;;-3.08;46.75
72486;BME280;60509;47.308;-122.428;2023-01-04T01:11:35;100024.51;;;-2.05;45.62
72486;BME280;60509;47.308;-122.428;2023-01-04T01:14:01;100029.59;;;-3.26;47.53
72486;BME280;60509;47.308;-122.428;2023-01-04T01:16:26;100026.93;;;-3.68;47.87
72486;BME280;60509;47.308;-122.428;2023-01-04T01:18:53;100022.04;;;-3.46;47.69
72486;BME280;60509;47.308;-122.428;2023-01-04T01:21:20;100022.25;;;-3.84;48.54
72486;BME280;60509;47.308;-122.428;2023-01-04T01:23:43;100021.26;;;-4.00;48.55
72486;BME280;60509;47.308;-122.428;2023-01-04T01:26:12;100025.42;;;-4.06;48.59
72486;BME280;60509;47.308;-122.428;2023-01-04T01:28:35;100029.70;;;-3.83;48.60
72486;BME280;60509;47.308;-122.428;2023-01-04T01:31:05;100027.93;;;-3.94;48.38
72486;BME280;60509;47.308;-122.428;2023-01-04T01:33:26;100026.20;;;-5.09;49.39
72486;BME280;60509;47.308;-122.428;2023-01-04T01:35:51;100026.38;;;-3.65;48.22
72486;BME280;60509;47.308;-122.428;2023-01-04T01:38:16;100027.16;;;-3.70;47.85
72486;BME280;60509;47.308;-122.428;2023-01-04T01:40:43;100024.01;;;-3.45;47.27
72486;BME280;60509;47.308;-122.428;2023-01-04T01:43:16;100020.22;;;-3.65;47.58
72486;BME280;60509;47.308;-122.428;2023-01-04T01:45:34;100019.94;;;-3.92;47.59
72486;BME280;60509;47.308;-122.428;2023-01-04T01:48:03;100017.61;;;-4.90;48.81
72486;BME280;60509;47.308;-122.428;2023-01-04T01:50:27;100015.63;;;-4.30;47.55
72486;BME280;60509;47.308;-122.428;2023-01-04T01:52:51;100020.94;;;-4.76;47.42
72486;BME280;60509;47.308;-122.428;2023-01-04T01:55:16;100020.30;;;-3.67;46.30
72486;BME280;60509;47.308;-122.428;2023-01-04T01:57:41;100020.97;;;-4.38;47.76
72486;BME280;60509;47.308;-122.428;2023-01-04T02:00:12;100020.75;;;-4.56;47.64
72486;BME280;60509;47.308;-122.428;2023-01-04T02:02:33;100019.41;;;-5.38;49.04
72486;BME280;60509;47.308;-122.428;2023-01-04T02:04:59;100015.44;;;-5.36;48.33
72486;BME280;60509;47.308;-122.428;2023-01-04T02:07:26;100013.06;;;-4.89;47.41
72486;BME280;60509;47.308;-122.428;2023-01-04T02:09:50;100011.29;;;-4.65;46.49
72486;BME280;60509;47.308;-122.428;2023-01-04T02:12:15;100010.83;;;-6.04;49.05
72486;BME280;60509;47.308;-122.428;2023-01-04T02:14:43;100012.12;;;-6.20;47.07
72486;BME280;60509;47.308;-122.428;2023-01-04T02:17:12;100011.34;;;-4.87;46.44
72486;BME280;60509;47.308;-122.428;2023-01-04T02:19:59;100011.65;;;-4.43;46.51
72486;BME280;60509;47.308;-122.428;2023-01-04T02:22:15;100016.26;;;-3.16;45.14
72486;BME280;60509;47.308;-122.428;2023-01-04T02:24:37;100014.81;;;-4.12;45.58
72486;BME280;60509;47.308;-122.428;2023-01-04T02:27:07;100017.51;;;-3.87;45.40
72486;BME280;60509;47.308;-122.428;2023-01-04T02:29:37;100018.64;;;-5.38;47.76
72486;BME280;60509;47.308;-122.428;2023-01-04T02:31:41;100022.40;;;-3.22;44.91
72486;BME280;60509;47.308;-122.428;2023-01-04T02:34:12;100024.36;;;-3.36;44.68
72486;BME280;60509;47.308;-122.428;2023-01-04T02:36:36;100033.09;;;-6.57;48.72
72486;BME280;60509;47.308;-122.428;2023-01-04T02:39:04;100032.19;;;-4.75;47.23
72486;BME280;60509;47.308;-122.428;2023-01-04T02:41:30;100032.11;;;-5.36;47.03
72486;BME280;60509;47.308;-122.428;2023-01-04T02:43:52;100027.46;;;-4.27;46.14
72486;BME280;60509;47.308;-122.428;2023-01-04T02:46:18;100030.56;;;-4.18;45.32
72486;BME280;60509;47.308;-122.428;2023-01-04T02:48:40;100032.61;;;-3.98;44.66
72486;BME280;60509;47.308;-122.428;2023-01-04T02:51:25;100034.85;;;-3.03;43.89
72486;BME280;60509;47.308;-122.428;2023-01-04T02:53:35;100026.19;;;-3.52;43.93
72486;BME280;60509;47.308;-122.428;2023-01-04T02:56:07;100025.67;;;-3.81;44.83
72486;BME280;60509;47.308;-122.428;2023-01-04T02:58:37;100029.48;;;-4.22;44.47
72486;BME280;60509;47.308;-122.428;2023-01-04T03:00:53;100027.92;;;-3.86;42.80
72486;BME280;60509;47.308;-122.428;2023-01-04T03:03:19;100031.06;;;-4.26;42.62
72486;BME280;60509;47.308;-122.428;2023-01-04T03:05:46;100029.15;;;-3.33;42.95
72486;BME280;60509;47.308;-122.428;2023-01-04T03:08:10;100029.95;;;-3.68;43.85
72486;BME280;60509;47.308;-122.428;2023-01-04T03:10:37;100032.78;;;-3.37;43.37
72486;BME280;60509;47.308;-122.428;2023-01-04T03:13:02;100034.39;;;-5.12;44.72
72486;BME280;60509;47.308;-122.428;2023-01-04T03:15:24;100031.54;;;-3.23;41.97
72486;BME280;60509;47.308;-122.428;2023-01-04T03:17:51;100029.99;;;-1.55;39.66
72486;BME280;60509;47.308;-122.428;2023-01-04T03:20:15;100032.76;;;-3.42;40.78
72486;BME280;60509;47.308;-122.428;2023-01-04T03:22:43;100032.22;;;-4.82;41.64
72486;BME280;60509;47.308;-122.428;2023-01-04T03:25:07;100038.08;;;-6.09;46.09
72486;BME280;60509;47.308;-122.428;2023-01-04T03:27:30;100036.64;;;-4.65;44.29
72486;BME280;60509;47.308;-122.428;2023-01-04T03:30:00;100042.46;;;-5.70;46.51
72486;BME280;60509;47.308;-122.428;2023-01-04T03:32:27;100040.99;;;-4.94;45.28
72486;BME280;60509;47.308;-122.428;2023-01-04T03:34:48;100046.46;;;-4.84;44.73
72486;BME280;60509;47.308;-122.428;2023-01-04T03:37:17;100058.25;;;-5.60;45.96
72486;BME280;60509;47.308;-122.428;2023-01-04T03:39:46;100061.52;;;-5.08;44.59
72486;BME280;60509;47.308;-122.428;2023-01-04T03:42:09;100065.87;;;-5.21;44.56
72486;BME280;60509;47.308;-122.428;2023-01-04T03:44:33;100075.38;;;-6.47;45.63
72486;BME280;60509;47.308;-122.428;2023-01-04T03:47:01;100079.82;;;-3.72;41.77
72486;BME280;60509;47.308;-122.428;2023-01-04T03:49:26;100088.21;;;-5.28;44.61
72486;BME280;60509;47.308;-122.428;2023-01-04T03:51:48;100089.94;;;-6.70;46.56
72486;BME280;60509;47.308;-122.428;2023-01-04T03:54:16;100095.11;;;-5.77;46.36
72486;BME280;60509;47.308;-122.428;2023-01-04T03:56:41;100098.85;;;-6.80;47.39
72486;BME280;60509;47.308;-122.428;2023-01-04T03:59:05;100103.05;;;-5.21;45.04
72486;BME280;60509;47.308;-122.428;2023-01-04T04:01:30;100104.31;;;-6.08;46.07
72486;BME280;60509;47.308;-122.428;2023-01-04T04:03:56;100106.61;;;-4.73;44.20
72486;BME280;60509;47.308;-122.428;2023-01-04T04:06:21;100106.79;;;-6.55;46.75
72486;BME280;60509;47.308;-122.428;2023-01-04T04:08:47;100109.66;;;-6.67;47.90
72486;BME280;60509;47.308;-122.428;2023-01-04T04:11:13;100106.83;;;-5.69;46.24
72486;BME280;60509;47.308;-122.428;2023-01-04T04:13:38;100104.74;;;-6.78;47.37
72486;BME280;60509;47.308;-122.428;2023-01-04T04:16:05;100113.35;;;-7.45;48.31
72486;BME280;60509;47.308;-122.428;2023-01-04T04:18:30;100111.94;;;-7.03;47.70
72486;BME280;60509;47.308;-122.428;2023-01-04T04:20:57;100121.83;;;-7.94;49.57
72486;BME280;60509;47.308;-122.428;2023-01-04T04:23:21;100124.76;;;-6.57;47.50
72486;BME280;60509;47.308;-122.428;2023-01-04T04:25:47;100125.83;;;-5.42;45.92
72486;BME280;60509;47.308;-122.428;2023-01-04T04:28:13;100126.88;;;-6.54;46.75
72486;BME280;60509;47.308;-122.428;2023-01-04T04:30:38;100137.42;;;-7.08;48.08
72486;BME280;60509;47.308;-122.428;2023-01-04T04:33:04;100133.35;;;-5.30;46.26
72486;BME280;60509;47.308;-122.428;2023-01-04T04:35:30;100137.16;;;-6.65;47.75
72486;BME280;60509;47.308;-122.428;2023-01-04T04:37:55;100142.45;;;-6.44;47.46
72486;BME280;60509;47.308;-122.428;2023-01-04T04:40:21;100138.35;;;-6.28;47.08
72486;BME280;60509;47.308;-122.428;2023-01-04T04:42:47;100137.00;;;-5.65;46.23
72486;BME280;60509;47.308;-122.428;2023-01-04T04:45:13;100143.79;;;-4.72;44.55
72486;BME280;60509;47.308;-122.428;2023-01-04T04:47:38;100152.73;;;-5.52;42.33
72486;BME280;60509;47.308;-122.428;2023-01-04T04:50:05;100158.26;;;-4.25;43.06
72486;BME280;60509;47.308;-122.428;2023-01-04T04:52:30;100165.43;;;-5.89;44.90
72486;BME280;60509;47.308;-122.428;2023-01-04T04:54:55;100165.84;;;-3.84;43.21
72486;BME280;60509;47.308;-122.428;2023-01-04T04:57:21;100170.03;;;-5.68;46.12
72486;BME280;60509;47.308;-122.428;2023-01-04T04:59:47;100168.55;;;-4.37;44.82
72486;BME280;60509;47.308;-122.428;2023-01-04T05:02:13;100168.02;;;-4.68;45.21
72486;BME280;60509;47.308;-122.428;2023-01-04T05:04:38;100168.35;;;-4.18;45.16
72486;BME280;60509;47.308;-122.428;2023-01-04T05:07:04;100170.28;;;-4.77;45.47
72486;BME280;60509;47.308;-122.428;2023-01-04T05:09:29;100170.95;;;-4.39;44.50
72486;BME280;60509;47.308;-122.428;2023-01-04T05:11:55;100176.83;;;-5.03;45.77
72486;BME280;60509;47.308;-122.428;2023-01-04T05:14:21;100180.37;;;-5.28;45.10
72486;BME280;60509;47.308;-122.428;2023-01-04T05:16:46;100181.78;;;-2.79;41.44
72486;BME280;60509;47.308;-122.428;2023-01-04T05:19:12;100181.98;;;-4.73;44.03
72486;BME280;60509;47.308;-122.428;2023-01-04T05:21:38;100191.67;;;-5.47;46.21
72486;BME280;60509;47.308;-122.428;2023-01-04T05:24:04;100193.69;;;-4.26;44.84
72486;BME280;60509;47.308;-122.428;2023-01-04T05:26:29;100192.87;;;-4.18;41.19
72486;BME280;60509;47.308;-122.428;2023-01-04T05:28:55;100197.55;;;-5.04;44.20
72486;BME280;60509;47.308;-122.428;2023-01-04T05:31:21;100205.42;;;-4.90;44.39
72486;BME280;60509;47.308;-122.428;2023-01-04T05:33:46;100207.37;;;-4.16;43.65
72486;BME280;60509;47.308;-122.428;2023-01-04T05:36:12;100208.09;;;-3.90;43.10
72486;BME280;60509;47.308;-122.428;2023-01-04T05:38:37;100221.03;;;-3.73;42.21
72486;BME280;60509;47.308;-122.428;2023-01-04T05:41:03;100229.98;;;-4.47;42.63
72486;BME280;60509;47.308;-122.428;2023-01-04T05:43:29;100236.46;;;-3.38;42.64
72486;BME280;60509;47.308;-122.428;2023-01-04T05:45:56;100244.67;;;-2.40;42.37
72486;BME280;60509;47.308;-122.428;2023-01-04T05:48:21;100259.41;;;-1.70;42.83
72486;BME280;60509;47.308;-122.428;2023-01-04T05:50:46;100258.12;;;-3.46;45.75
72486;BME280;60509;47.308;-122.428;2023-01-04T05:53:13;100270.76;;;-3.61;46.89
72486;BME280;60509;47.308;-122.428;2023-01-04T05:55:37;100271.17;;;-2.54;46.36
72486;BME280;60509;47.308;-122.428;2023-01-04T05:58:03;100277.61;;;-1.83;45.38
72486;BME280;60509;47.308;-122.428;2023-01-04T06:00:28;100281.66;;;-2.58;46.04
72486;BME280;60509;47.308;-122.428;2023-01-04T06:02:54;100274.08;;;-1.11;44.54
72486;BME280;60509;47.308;-122.428;2023-01-04T06:05:20;100267.27;;;-1.67;44.76
72486;BME280;60509;47.308;-122.428;2023-01-04T06:07:45;100260.47;;;-1.63;44.21
72486;BME280;60509;47.308;-122.428;2023-01-04T06:10:13;100259.74;;;-3.53;46.86
72486;BME280;60509;47.308;-122.428;2023-01-04T06:12:37;100264.59;;;-2.56;45.85
72486;BME280;60509;47.308;-122.428;2023-01-04T06:15:03;100276.86;;;-1.45;44.57
72486;BME280;60509;47.308;-122.428;2023-01-04T06:17:28;100283.26;;;-2.96;46.04
72486;BME280;60509;47.308;-122.428;2023-01-04T06:19:54;100278.08;;;-3.93;47.04
72486;BME280;60509;47.308;-122.428;2023-01-04T06:22:20;100263.91;;;-3.00;45.84
72486;BME280;60509;47.308;-122.428;2023-01-04T06:24:45;100257.92;;;-2.94;45.52
72486;BME280;60509;47.308;-122.428;2023-01-04T06:27:11;100256.17;;;-2.74;45.08
72486;BME280;60509;47.308;-122.428;2023-01-04T06:29:36;100256.51;;;-2.70;44.65
72486;BME280;60509;47.308;-122.428;2023-01-04T06:32:02;100259.87;;;-2.24;44.43
72486;BME280;60509;47.308;-122.428;2023-01-04T06:34:28;100265.56;;;-3.99;46.43
72486;BME280;60509;47.308;-122.428;2023-01-04T06:36:53;100267.84;;;-3.79;45.13
72486;BME280;60509;47.308;-122.428;2023-01-04T06:39:19;100272.05;;;-3.34;44.54
72486;BME280;60509;47.308;-122.428;2023-01-04T06:41:45;100274.86;;;-3.41;44.42
72486;BME280;60509;47.308;-122.428;2023-01-04T06:44:10;100279.85;;;-2.08;43.93
72486;BME280;60509;47.308;-122.428;2023-01-04T06:46:36;100286.05;;;-3.90;46.91
72486;BME280;60509;47.308;-122.428;2023-01-04T06:49:02;100293.31;;;-2.66;45.03
72486;BME280;60509;47.308;-122.428;2023-01-04T06:51:27;100297.85;;;-2.01;44.04
72486;BME280;60509;47.308;-122.428;2023-01-04T06:53:53;100298.76;;;-3.44;43.82
72486;BME280;60509;47.308;-122.428;2023-01-04T06:56:19;100304.85;;;-0.93;41.90
72486;BME280;60509;47.308;-122.428;2023-01-04T06:58:44;100307.52;;;-1.47;42.87
72486;BME280;60509;47.308;-122.428;2023-01-04T07:01:10;100306.58;;;-2.69;44.16
72486;BME280;60509;47.308;-122.428;2023-01-04T07:03:35;100302.80;;;-3.06;44.49
72486;BME280;60509;47.308;-122.428;2023-01-04T07:06:04;100303.76;;;-2.54;44.03
72486;BME280;60509;47.308;-122.428;2023-01-04T07:08:26;100313.85;;;-3.26;44.43
72486;BME280;60509;47.308;-122.428;2023-01-04T07:10:52;100316.73;;;-3.75;46.22
72486;BME280;60509;47.308;-122.428;2023-01-04T07:13:18;100318.64;;;-3.00;45.64
72486;BME280;60509;47.308;-122.428;2023-01-04T07:15:43;100324.20;;;-4.35;48.10
72486;BME280;60509;47.308;-122.428;2023-01-04T07:18:10;100335.32;;;-3.98;46.62
72486;BME280;60509;47.308;-122.428;2023-01-04T07:20:35;100347.86;;;-0.72;42.92
72486;BME280;60509;47.308;-122.428;2023-01-04T07:23:00;100349.60;;;-1.27;42.70
72486;BME280;60509;47.308;-122.428;2023-01-04T07:25:26;100354.32;;;-2.29;43.96
72486;BME280;60509;47.308;-122.428;2023-01-04T07:27:52;100351.76;;;-1.70;43.66
72486;BME280;60509;47.308;-122.428;2023-01-04T07:30:17;100342.04;;;-2.90;46.63
72486;BME280;60509;47.308;-122.428;2023-01-04T07:32:43;100338.46;;;-1.71;44.16
72486;BME280;60509;47.308;-122.428;2023-01-04T07:35:08;100351.83;;;-3.60;48.40
72486;BME280;60509;47.308;-122.428;2023-01-04T07:37:34;100363.36;;;-5.23;50.25
72486;BME280;60509;47.308;-122.428;2023-01-04T07:39:59;100362.53;;;-0.83;44.89
72486;BME280;60509;47.308;-122.428;2023-01-04T07:42:25;100374.61;;;-1.28;46.57
72486;BME280;60509;47.308;-122.428;2023-01-04T07:44:51;100361.66;;;-2.81;48.14
72486;BME280;60509;47.308;-122.428;2023-01-04T07:47:16;100358.28;;;-2.80;48.12
72486;BME280;60509;47.308;-122.428;2023-01-04T07:49:42;100351.87;;;-3.59;48.60
72486;BME280;60509;47.308;-122.428;2023-01-04T07:52:08;100339.45;;;-1.78;46.50
72486;BME280;60509;47.308;-122.428;2023-01-04T07:54:33;100331.58;;;-2.21;46.69
72486;BME280;60509;47.308;-122.428;2023-01-04T07:56:59;100331.76;;;-3.50;47.63
72486;BME280;60509;47.308;-122.428;2023-01-04T07:59:25;100328.72;;;-3.50;47.71
72486;BME280;60509;47.308;-122.428;2023-01-04T08:01:50;100326.53;;;-2.51;46.60
72486;BME280;60509;47.308;-122.428;2023-01-04T08:04:16;100339.04;;;-1.77;44.75
72486;BME280;60509;47.308;-122.428;2023-01-04T08:06:42;100342.16;;;-3.33;45.88
72486;BME280;60509;47.308;-122.428;2023-01-04T08:09:09;100347.62;;;-1.62;44.82
72486;BME280;60509;47.308;-122.428;2023-01-04T08:11:33;100347.34;;;-1.60;44.63
72486;BME280;60509;47.308;-122.428;2023-01-04T08:13:58;100345.71;;;-3.02;45.87
72486;BME280;60509;47.308;-122.428;2023-01-04T08:16:26;100348.21;;;-2.67;46.18
72486;BME280;60509;47.308;-122.428;2023-01-04T08:18:53;100343.98;;;-4.32;48.45
72486;BME280;60509;47.308;-122.428;2023-01-04T08:21:15;100345.83;;;-3.32;47.40
72486;BME280;60509;47.308;-122.428;2023-01-04T08:23:40;100356.09;;;-2.19;45.45
72486;BME280;60509;47.308;-122.428;2023-01-04T08:26:08;100356.56;;;0.34;43.79
72486;BME280;60509;47.308;-122.428;2023-01-04T08:28:32;100357.55;;;-0.29;44.58
72486;BME280;60509;47.308;-122.428;2023-01-04T08:30:57;100341.98;;;-2.90;46.65
72486;BME280;60509;47.308;-122.428;2023-01-04T08:33:23;100349.95;;;-0.33;43.76
72486;BME280;60509;47.308;-122.428;2023-01-04T08:35:48;100354.80;;;-2.91;45.09
72486;BME280;60509;47.308;-122.428;2023-01-04T08:38:14;100360.01;;;-3.02;45.49
72486;BME280;60509;47.308;-122.428;2023-01-04T08:40:39;100363.14;;;-0.63;44.38
72486;BME280;60509;47.308;-122.428;2023-01-04T08:43:05;100376.54;;;-0.08;43.29
72486;BME280;60509;47.308;-122.428;2023-01-04T08:45:30;100382.94;;;-0.07;43.89
72486;BME280;60509;47.308;-122.428;2023-01-04T08:47:56;100384.06;;;0.56;42.93
72486;BME280;60509;47.308;-122.428;2023-01-04T08:50:22;100378.51;;;-0.66;44.30
72486;BME280;60509;47.308;-122.428;2023-01-04T08:52:47;100378.74;;;-0.57;44.40
72486;BME280;60509;47.308;-122.428;2023-01-04T08:55:13;100384.53;;;-2.63;46.34
72486;BME280;60509;47.308;-122.428;2023-01-04T08:57:38;100400.64;;;-0.63;44.15
72486;BME280;60509;47.308;-122.428;2023-01-04T09:00:05;100403.29;;;-1.57;44.14
72486;BME280;60509;47.308;-122.428;2023-01-04T09:02:30;100418.95;;;-3.09;48.82
72486;BME280;60509;47.308;-122.428;2023-01-04T09:04:55;100420.66;;;-3.82;49.84
72486;BME280;60509;47.308;-122.428;2023-01-04T09:07:21;100416.51;;;-1.73;46.59
72486;BME280;60509;47.308;-122.428;2023-01-04T09:09:46;100408.62;;;-0.61;44.31
72486;BME280;60509;47.308;-122.428;2023-01-04T09:12:12;100403.45;;;-0.99;44.36
72486;BME280;60509;47.308;-122.428;2023-01-04T09:14:38;100394.34;;;-3.54;47.52
72486;BME280;60509;47.308;-122.428;2023-01-04T09:17:03;100388.27;;;-1.54;44.56
72486;BME280;60509;47.308;-122.428;2023-01-04T09:19:29;100385.58;;;-1.84;43.66
72486;BME280;60509;47.308;-122.428;2023-01-04T09:21:54;100382.27;;;-1.71;42.87
72486;BME280;60509;47.308;-122.428;2023-01-04T09:24:20;100375.55;;;-0.70;42.15
72486;BME280;60509;47.308;-122.428;2023-01-04T09:26:46;100378.00;;;-2.45;44.16
72486;BME280;60509;47.308;-122.428;2023-01-04T09:29:11;100380.06;;;-2.97;44.63
72486;BME280;60509;47.308;-122.428;2023-01-04T09:31:37;100381.15;;;-2.64;44.99
72486;BME280;60509;47.308;-122.428;2023-01-04T09:34:02;100379.68;;;-0.98;42.32
72486;BME280;60509;47.308;-122.428;2023-01-04T09:36:28;100384.11;;;-0.66;41.51
72486;BME280;60509;47.308;-122.428;2023-01-04T09:38:54;100384.84;;;-3.29;45.35
72486;BME280;60509;47.308;-122.428;2023-01-04T09:41:24;100379.60;;;-3.12;44.19
72486;BME280;60509;47.308;-122.428;2023-01-04T09:43:47;100375.87;;;-2.11;42.44
72486;BME280;60509;47.308;-122.428;2023-01-04T09:46:16;100371.87;;;-1.15;41.71
72486;BME280;60509;47.308;-122.428;2023-01-04T09:48:37;100366.86;;;-2.23;43.50
72486;BME280;60509;47.308;-122.428;2023-01-04T09:51:05;100365.06;;;-1.21;43.09
72486;BME280;60509;47.308;-122.428;2023-01-04T09:53:30;100371.67;;;-2.86;44.62
72486;BME280;60509;47.308;-122.428;2023-01-04T09:56:06;100380.96;;;-5.21;43.68
72486;BME280;60509;47.308;-122.428;2023-01-04T09:58:24;100387.45;;;-2.85;44.74
72486;BME280;60509;47.308;-122.428;2023-01-04T10:00:47;100387.41;;;-4.79;45.17
72486;BME280;60509;47.308;-122.428;2023-01-04T10:03:14;100390.00;;;-3.47;44.59
72486;BME280;60509;47.308;-122.428;2023-01-04T10:05:36;100393.84;;;-3.77;43.64
72486;BME280;60509;47.308;-122.428;2023-01-04T10:08:02;100388.49;;;-3.03;42.76
72486;BME280;60509;47.308;-122.428;2023-01-04T10:10:44;100397.06;;;-2.97;43.13
72486;BME280;60509;47.308;-122.428;2023-01-04T10:13:01;100400.83;;;-3.24;41.68
72486;BME280;60509;47.308;-122.428;2023-01-04T10:15:26;100406.09;;;-2.23;42.42
72486;BME280;60509;47.308;-122.428;2023-01-04T10:17:57;100398.02;;;-2.92;42.39
72486;BME280;60509;47.308;-122.428;2023-01-04T10:20:30;100399.24;;;-3.75;44.50
72486;BME280;60509;47.308;-122.428;2023-01-04T10:22:42;100398.35;;;-3.14;44.15
72486;BME280;60509;47.308;-122.428;2023-01-04T10:25:14;100397.41;;;-3.31;43.56
72486;BME280;60509;47.308;-122.428;2023-01-04T10:27:35;100390.93;;;-3.39;43.91
72486;BME280;60509;47.308;-122.428;2023-01-04T10:30:01;100386.61;;;-2.57;42.85
72486;BME280;60509;47.308;-122.428;2023-01-04T10:32:25;100386.49;;;-3.46;44.65
72486;BME280;60509;47.308;-122.428;2023-01-04T10:34:44;100392.22;;;-3.94;46.87
72486;BME280;60509;47.308;-122.428;2023-01-04T10:37:13;100381.97;;;-3.28;44.55
72486;BME280;60509;47.308;-122.428;2023-01-04T10:39:35;100381.71;;;-2.32;43.08
72486;BME280;60509;47.308;-122.428;2023-01-04T10:42:11;100383.75;;;-3.49;41.75
72486;BME280;60509;47.308;-122.428;2023-01-04T10:44:35;100379.89;;;-1.45;40.95
72486;BME280;60509;47.308;-122.428;2023-01-04T10:46:59;100374.90;;;-4.20;38.74
72486;BME280;60509;47.308;-122.428;2023-01-04T10:49:22;100368.36;;;-4.05;45.41
72486;BME280;60509;47.308;-122.428;2023-01-04T10:51:46;100362.34;;;-4.09;45.56
72486;BME280;60509;47.308;-122.428;2023-01-04T10:54:17;100356.30;;;-4.93;46.81
72486;BME280;60509;47.308;-122.428;2023-01-04T10:56:38;100354.68;;;-4.78;46.69
72486;BME280;60509;47.308;-122.428;2023-01-04T10:59:04;100357.03;;;-5.26;46.36
72486;BME280;60509;47.308;-122.428;2023-01-04T11:01:28;100350.84;;;-5.07;44.87
72486;BME280;60509;47.308;-122.428;2023-01-04T11:03:54;100347.10;;;-4.26;41.13
72486;BME280;60509;47.308;-122.428;2023-01-04T11:06:20;100357.82;;;-5.47;44.17
72486;BME280;60509;47.308;-122.428;2023-01-04T11:08:46;100359.65;;;-4.60;43.06
72486;BME280;60509;47.308;-122.428;2023-01-04T11:11:11;100358.94;;;-3.33;41.01
72486;BME280;60509;47.308;-122.428;2023-01-04T11:13:34;100358.92;;;-4.73;43.68
72486;BME280;60509;47.308;-122.428;2023-01-04T11:16:00;100361.87;;;-5.70;46.69
72486;BME280;60509;47.308;-122.428;2023-01-04T11:18:25;100356.93;;;-5.58;46.74
72486;BME280;60509;47.308;-122.428;2023-01-04T11:20:51;100355.00;;;-5.16;45.40
72486;BME280;60509;47.308;-122.428;2023-01-04T11:23:19;100348.92;;;-6.07;46.44
72486;BME280;60509;47.308;-122.428;2023-01-04T11:25:46;100340.94;;;-4.84;44.60
72486;BME280;60509;47.308;-122.428;2023-01-04T11:28:15;100332.64;;;-4.75;44.05
72486;BME280;60509;47.308;-122.428;2023-01-04T11:30:46;100329.71;;;-4.76;44.53
72486;BME280;60509;47.308;-122.428;2023-01-04T11:33:01;100333.21;;;-6.58;46.71
72486;BME280;60509;47.308;-122.428;2023-01-04T11:35:40;100332.35;;;-6.74;46.53
72486;BME280;60509;47.308;-122.428;2023-01-04T11:37:51;100332.34;;;-6.90;46.58
72486;BME280;60509;47.308;-122.428;2023-01-04T11:40:23;100333.22;;;-6.83;46.65
72486;BME280;60509;47.308;-122.428;2023-01-04T11:42:43;100328.09;;;-5.90;45.40
72486;BME280;60509;47.308;-122.428;2023-01-04T11:45:17;100323.55;;;-5.97;45.03
72486;BME280;60509;47.308;-122.428;2023-01-04T11:47:34;100315.46;;;-6.37;44.54
72486;BME280;60509;47.308;-122.428;2023-01-04T11:49:59;100311.12;;;-5.78;44.49
72486;BME280;60509;47.308;-122.428;2023-01-04T11:52:31;100307.09;;;-4.85;43.82
72486;BME280;60509;47.308;-122.428;2023-01-04T11:54:51;100308.03;;;-6.17;43.90
72486;BME280;60509;47.308;-122.428;2023-01-04T11:57:18;100301.40;;;-5.50;43.18
72486;BME280;60509;47.308;-122.428;2023-01-04T11:59:42;100303.98;;;-5.46;42.82
72486;BME280;60509;47.308;-122.428;2023-01-04T12:02:25;100308.52;;;-5.91;44.42
72486;BME280;60509;47.308;-122.428;2023-01-04T12:04:34;100306.20;;;-7.92;44.21
72486;BME280;60509;47.308;-122.428;2023-01-04T12:07:04;100299.08;;;-4.35;41.65
72486;BME280;60509;47.308;-122.428;2023-01-04T12:09:27;100299.94;;;-6.44;44.58
72486;BME280;60509;47.308;-122.428;2023-01-04T12:11:52;100295.32;;;-6.00;43.74